Terminal Aerodrome Forecast
Issued by NWS

Home | Current Version | Previous Version | Graphics & Text | Print | Product List | Glossary On
Versions: 1 2 3 4 5 6 7 8 9 10 11 12 13 14 15 16 17
424
FTUS43 KGRB 271334 AAA
TAFAUW
TAF AMD
KAUW 271334Z 2714/2812 26003KT P6SM VCSH SCT050 OVC100
      TEMPO 2714/2715 34010G20KT 3SM -TSRA SCT012 BKN040CB
     FM272000 34006KT 4SM SHRA VCTS BKN040CB
     FM280300 07004KT P6SM VCSH BKN025 OVC040
     FM280600 09006KT 5SM BR VCSH BKN020
     FM280900 09005KT 3SM BR BKN010 OVC018=

USA.gov is the U.S. government's official web portal to all federal, state and local government web resources and services.